createdAt,value
2022-10-24T00:01:58.636Z,100696.56
2022-10-24T00:06:00.050Z,100702.09
2022-10-24T00:10:01.513Z,100724.81
2022-10-24T00:14:03.655Z,100733.50
2022-10-24T00:18:05.357Z,100722.31
2022-10-24T00:22:06.769Z,100722.19
2022-10-24T00:26:08.389Z,100707.22
2022-10-24T00:30:10.267Z,100700.03
2022-10-24T00:34:11.900Z,100668.72
2022-10-24T00:38:13.598Z,100644.72
2022-10-24T00:42:15.076Z,100623.13
2022-10-24T00:46:17.995Z,100632.19
2022-10-24T00:50:19.419Z,100638.75
2022-10-24T00:54:21.246Z,100634.06
2022-10-24T00:58:27.454Z,100637.16
2022-10-24T01:02:28.884Z,100645.06
2022-10-24T01:07:02.588Z,100630.00
2022-10-24T01:11:16.481Z,100604.88
2022-10-24T01:15:24.747Z,100609.19
2022-10-24T01:19:49.714Z,100604.34
2022-10-24T01:24:02.672Z,100602.47
2022-10-24T01:28:11.853Z,100601.84
2022-10-24T01:32:26.192Z,100594.59
2022-10-24T01:36:37.474Z,100597.75
2022-10-24T01:40:53.700Z,100607.66
2022-10-24T01:44:57.635Z,100630.38
2022-10-24T01:49:02.782Z,100637.88
2022-10-24T01:53:05.357Z,100625.25
2022-10-24T01:57:07.558Z,100626.53
2022-10-24T02:01:16.075Z,100637.59
2022-10-24T02:05:34.118Z,100634.28
2022-10-24T02:09:38.400Z,100627.22
2022-10-24T02:13:51.809Z,100630.28
2022-10-24T02:17:54.734Z,100619.31
2022-10-24T02:22:21.618Z,100619.91
2022-10-24T02:26:52.223Z,100612.03
2022-10-24T02:30:59.546Z,100610.63
2022-10-24T02:35:03.717Z,100612.34
2022-10-24T02:39:08.243Z,100608.66
2022-10-24T02:43:12.616Z,100610.50
2022-10-24T02:47:15.272Z,100613.78
2022-10-24T02:51:18.117Z,100596.88
2022-10-24T02:55:19.651Z,100590.13
2022-10-24T02:59:21.117Z,100601.19
2022-10-24T03:03:22.536Z,100595.31
2022-10-24T03:07:24.183Z,100586.31
2022-10-24T03:11:27.736Z,100571.63
2022-10-24T03:15:29.500Z,100565.56
2022-10-24T03:19:30.917Z,100583.88
2022-10-24T03:23:32.469Z,100582.84
2022-10-24T03:27:34.540Z,100590.66
2022-10-24T03:31:36.437Z,100585.66
2022-10-24T03:35:38.228Z,100586.09
2022-10-24T03:39:39.640Z,100587.84
2022-10-24T03:43:41.052Z,100583.81
2022-10-24T03:47:42.461Z,100584.84
2022-10-24T03:51:43.871Z,100581.91
2022-10-24T03:55:45.303Z,100582.09
2022-10-24T03:59:46.767Z,100583.16
2022-10-24T04:03:48.170Z,100580.88
2022-10-24T04:07:49.638Z,100593.69
2022-10-24T04:11:53.532Z,100580.09
2022-10-24T04:15:54.972Z,100579.41
2022-10-24T04:19:56.393Z,100581.03
2022-10-24T04:23:58.195Z,100586.19
2022-10-24T04:27:59.614Z,100581.19
2022-10-24T04:32:01.385Z,100583.06
2022-10-24T04:36:03.005Z,100584.09
2022-10-24T04:40:04.856Z,100582.97
2022-10-24T04:44:06.293Z,100583.56
2022-10-24T04:48:07.854Z,100574.72
2022-10-24T04:52:09.302Z,100581.66
2022-10-24T04:56:10.891Z,100585.91
2022-10-24T05:00:12.835Z,100586.41
2022-10-24T05:04:14.485Z,100587.81
2022-10-24T05:08:17.623Z,100587.91
2022-10-24T05:16:25.557Z,100583.56
2022-10-24T05:20:27.171Z,100576.50
2022-10-24T05:24:30.048Z,100584.16
2022-10-24T05:28:31.485Z,100584.41
2022-10-24T05:32:34.864Z,100578.53
2022-10-24T05:36:38.739Z,100575.59
2022-10-24T05:40:40.146Z,100581.47
2022-10-24T05:44:41.651Z,100590.13
2022-10-24T05:48:43.140Z,100597.69
2022-10-24T05:52:47.155Z,100588.28
2022-10-24T05:56:48.856Z,100584.50
2022-10-24T06:00:54.053Z,100573.50
2022-10-24T06:04:57.001Z,100580.25
2022-10-24T06:08:58.444Z,100579.97
2022-10-24T06:12:59.917Z,100567.59
2022-10-24T06:17:01.475Z,100565.94
2022-10-24T06:21:04.802Z,100574.31
2022-10-24T06:25:06.419Z,100570.06
2022-10-24T06:29:07.905Z,100567.81
2022-10-24T06:33:09.923Z,100572.00
2022-10-24T06:37:11.406Z,100589.97
2022-10-24T06:41:13.874Z,100593.03
2022-10-24T06:45:15.783Z,100593.97
2022-10-24T06:49:17.659Z,100591.72
2022-10-24T06:57:25.540Z,100586.38
2022-10-24T07:01:27.753Z,100592.06
2022-10-24T07:05:29.261Z,100582.72
2022-10-24T07:09:30.723Z,100581.78
2022-10-24T07:13:32.323Z,100589.25
2022-10-24T07:17:39.814Z,100577.63
2022-10-24T07:21:41.487Z,100578.22
2022-10-24T07:25:42.958Z,100582.88
2022-10-24T07:29:44.573Z,100580.94
2022-10-24T07:33:46.061Z,100582.06
2022-10-24T07:37:47.672Z,100575.41
2022-10-24T07:41:49.289Z,100589.38
2022-10-24T07:45:52.041Z,100593.31
2022-10-24T07:49:53.819Z,100596.13
2022-10-24T07:53:57.575Z,100577.63
2022-10-24T07:57:58.971Z,100588.50
2022-10-24T08:02:00.363Z,100581.03
2022-10-24T08:06:05.839Z,100581.66
2022-10-24T08:10:10.299Z,100584.00
2022-10-24T08:14:11.951Z,100580.09
2022-10-24T08:18:13.436Z,100590.88
2022-10-24T08:22:15.295Z,100590.75
2022-10-24T08:26:19.708Z,100581.44
2022-10-24T08:30:21.839Z,100576.84
2022-10-24T08:34:23.535Z,100584.75
2022-10-24T08:38:25.449Z,100574.44
2022-10-24T08:42:26.892Z,100584.56
2022-10-24T08:46:55.640Z,100582.00
2022-10-24T08:51:07.263Z,100587.88
2022-10-24T08:55:48.266Z,100590.59
2022-10-24T08:59:38.429Z,100577.78
2022-10-24T09:03:57.968Z,100585.03
2022-10-24T09:08:10.475Z,100585.56
2022-10-24T09:12:14.962Z,100582.66
2022-10-24T09:16:22.553Z,100584.41
2022-10-24T09:20:30.339Z,100576.19
2022-10-24T09:24:51.115Z,100579.53
2022-10-24T09:28:55.020Z,100579.16
2022-10-24T09:32:59.339Z,100572.38
2022-10-24T09:37:00.800Z,100573.63
2022-10-24T09:41:06.366Z,100582.31
2022-10-24T09:45:27.898Z,100590.47
2022-10-24T09:49:35.741Z,100575.63
2022-10-24T09:53:59.307Z,100573.09
2022-10-24T09:58:05.193Z,100574.75
2022-10-24T10:02:24.043Z,100568.75
2022-10-24T10:06:25.604Z,100573.63
2022-10-24T10:10:34.202Z,100571.00
2022-10-24T10:14:41.048Z,100582.22
2022-10-24T10:18:46.306Z,100580.22
2022-10-24T10:22:47.748Z,100584.22
2022-10-24T10:26:49.167Z,100574.31
2022-10-24T10:30:56.348Z,100560.47
2022-10-24T10:35:11.353Z,100563.97
2022-10-24T10:39:21.309Z,100562.84
2022-10-24T10:43:48.072Z,100568.47
2022-10-24T10:48:09.345Z,100553.25
2022-10-24T10:52:29.650Z,100551.38
2022-10-24T10:56:45.444Z,100548.97
2022-10-24T11:01:08.720Z,100554.91
2022-10-24T11:05:32.434Z,100549.44
2022-10-24T11:09:39.482Z,100544.00
2022-10-24T11:13:48.051Z,100544.75
2022-10-24T11:18:00.627Z,100538.81
2022-10-24T11:22:04.925Z,100534.88
2022-10-24T11:26:31.205Z,100525.22
2022-10-24T11:31:01.031Z,100530.06
2022-10-24T11:35:27.868Z,100520.78
2022-10-24T11:39:36.357Z,100519.47
2022-10-24T11:43:44.163Z,100513.56
2022-10-24T11:48:11.650Z,100517.53
2022-10-24T11:52:22.971Z,100514.81
2022-10-24T11:56:47.038Z,100500.84
2022-10-24T12:00:51.585Z,100503.56
2022-10-24T12:05:00.580Z,100504.44
2022-10-24T12:09:14.491Z,100497.50
2022-10-24T12:13:40.359Z,100494.47
2022-10-24T12:17:57.092Z,100498.75
2022-10-24T12:22:02.105Z,100514.38
2022-10-24T12:26:27.260Z,100513.66
2022-10-24T12:30:32.235Z,100505.28
2022-10-24T12:34:48.910Z,100497.59
2022-10-24T12:38:56.820Z,100505.97
2022-10-24T12:42:58.194Z,100503.53
2022-10-24T12:47:01.702Z,100512.94
2022-10-24T12:51:06.087Z,100523.63
2022-10-24T12:55:39.368Z,100510.66
2022-10-24T12:59:51.402Z,100519.19
2022-10-24T13:04:07.828Z,100519.47
2022-10-24T13:08:42.848Z,100509.28
2022-10-24T13:13:25.241Z,100527.84
2022-10-24T13:17:40.803Z,100520.44
2022-10-24T13:21:57.517Z,100521.09
2022-10-24T13:25:59.866Z,100525.69
2022-10-24T13:30:04.843Z,100528.34
2022-10-24T13:34:50.773Z,100527.78
2022-10-24T13:38:56.166Z,100535.19
2022-10-24T13:43:07.461Z,100525.22
2022-10-24T13:47:18.845Z,100528.66
2022-10-24T13:51:26.879Z,100524.91
2022-10-24T13:55:42.262Z,100526.56
2022-10-24T13:59:43.724Z,100521.00
2022-10-24T14:03:48.013Z,100521.97
2022-10-24T14:07:49.839Z,100518.97
2022-10-24T14:11:51.388Z,100520.56
2022-10-24T14:16:01.660Z,100521.44
2022-10-24T14:20:09.599Z,100520.22
2022-10-24T14:24:15.400Z,100516.53
2022-10-24T14:28:20.493Z,100523.75
2022-10-24T14:32:22.487Z,100521.00
2022-10-24T14:36:27.597Z,100522.44
2022-10-24T14:40:30.809Z,100538.94
2022-10-24T14:44:35.009Z,100555.56
2022-10-24T14:48:43.566Z,100570.97
2022-10-24T14:52:45.522Z,100552.84
2022-10-24T14:56:48.118Z,100547.22
2022-10-24T15:00:49.776Z,100538.44
2022-10-24T15:04:52.947Z,100548.31
2022-10-24T15:09:04.901Z,100555.28
2022-10-24T15:13:21.455Z,100555.16
2022-10-24T15:17:32.425Z,100561.91
2022-10-24T15:21:38.875Z,100559.69
2022-10-24T15:25:42.934Z,100559.59
2022-10-24T15:29:44.650Z,100555.03
2022-10-24T15:33:47.627Z,100556.13
2022-10-24T15:38:12.530Z,100559.88
2022-10-24T15:42:15.577Z,100561.22
2022-10-24T15:46:19.278Z,100558.81
2022-10-24T15:50:24.165Z,100553.63
2022-10-24T15:54:29.266Z,100551.53
2022-10-24T15:58:30.688Z,100554.63
2022-10-24T16:02:32.192Z,100547.69
2022-10-24T16:06:34.707Z,100560.19
2022-10-24T16:10:36.124Z,100572.94
2022-10-24T16:14:37.555Z,100575.66
2022-10-24T16:18:39.124Z,100574.44
2022-10-24T16:22:41.787Z,100581.47
2022-10-24T16:26:43.286Z,100590.69
2022-10-24T16:30:45.279Z,100589.03
2022-10-24T16:34:48.908Z,100587.88
2022-10-24T16:38:50.435Z,100595.22
2022-10-24T16:42:53.233Z,100596.31
2022-10-24T16:46:54.659Z,100600.22
2022-10-24T16:50:56.104Z,100602.25
2022-10-24T16:54:57.604Z,100601.38
2022-10-24T16:58:59.048Z,100602.38
2022-10-24T17:03:00.513Z,100602.38
2022-10-24T17:07:04.264Z,100612.28
2022-10-24T17:11:20.204Z,100617.50
2022-10-24T17:15:27.469Z,100613.50
2022-10-24T17:19:29.177Z,100614.13
2022-10-24T17:23:30.744Z,100612.78
2022-10-24T17:27:32.372Z,100615.81
2022-10-24T17:31:35.017Z,100624.47
2022-10-24T17:35:40.436Z,100619.56
2022-10-24T17:39:49.287Z,100626.88
2022-10-24T17:43:51.360Z,100637.03
2022-10-24T17:47:53.409Z,100636.22
2022-10-24T17:51:54.872Z,100638.28
2022-10-24T17:55:56.276Z,100639.13
2022-10-24T17:59:57.655Z,100633.44
2022-10-24T18:03:59.063Z,100643.16
2022-10-24T18:08:00.495Z,100651.69
2022-10-24T18:12:02.754Z,100656.31
2022-10-24T18:16:11.926Z,100650.31
2022-10-24T18:20:15.498Z,100649.66
2022-10-24T18:24:16.957Z,100661.72
2022-10-24T18:28:18.639Z,100661.69
2022-10-24T18:32:20.646Z,100662.16
2022-10-24T18:36:24.632Z,100659.72
2022-10-24T18:40:26.261Z,100664.78
2022-10-24T18:44:30.868Z,100667.78
2022-10-24T18:48:32.708Z,100656.28
2022-10-24T18:52:48.919Z,100656.28
2022-10-24T18:56:50.628Z,100653.50
2022-10-24T19:00:54.250Z,100662.06
2022-10-24T19:05:06.992Z,100668.03
2022-10-24T19:09:19.771Z,100677.16
2022-10-24T19:13:26.012Z,100672.94
2022-10-24T19:17:27.512Z,100673.47
2022-10-24T19:21:29.048Z,100674.03
2022-10-24T19:25:31.643Z,100679.97
2022-10-24T19:29:33.052Z,100684.66
2022-10-24T19:33:34.663Z,100687.75
2022-10-24T19:37:37.051Z,100684.25
2022-10-24T19:41:38.522Z,100686.50
2022-10-24T19:45:49.794Z,100690.47
2022-10-24T19:49:56.670Z,100685.44
2022-10-24T19:53:58.306Z,100687.38
2022-10-24T19:57:59.711Z,100686.84
2022-10-24T20:02:01.238Z,100685.84
2022-10-24T20:06:02.897Z,100686.72
2022-10-24T20:10:04.870Z,100689.22
2022-10-24T20:14:06.674Z,100685.69
2022-10-24T20:18:08.176Z,100682.81
2022-10-24T20:22:09.587Z,100693.81
2022-10-24T20:26:14.784Z,100700.25
2022-10-24T20:30:16.286Z,100704.78
2022-10-24T20:34:17.768Z,100718.44
2022-10-24T20:38:19.279Z,100729.72
2022-10-24T20:42:22.184Z,100721.38
2022-10-24T20:46:23.976Z,100729.38
2022-10-24T20:50:25.431Z,100730.31
2022-10-24T20:54:26.868Z,100726.00
2022-10-24T20:58:28.271Z,100726.63
2022-10-24T21:02:29.843Z,100728.72
2022-10-24T21:06:33.251Z,100732.22
2022-10-24T21:10:34.654Z,100738.38
2022-10-24T21:14:36.138Z,100750.16
2022-10-24T21:18:37.965Z,100749.28
2022-10-24T21:22:39.549Z,100752.13
2022-10-24T21:26:41.500Z,100757.34
2022-10-24T21:30:42.891Z,100765.09
2022-10-24T21:34:44.311Z,100765.53
2022-10-24T21:38:47.008Z,100776.81
2022-10-24T21:42:48.889Z,100787.28
2022-10-24T21:46:51.862Z,100790.88
2022-10-24T21:50:53.279Z,100783.25
2022-10-24T21:54:54.879Z,100789.59
2022-10-24T22:03:07.992Z,100794.78
2022-10-24T22:07:09.387Z,100789.81
2022-10-24T22:11:14.187Z,100804.28
2022-10-24T22:15:15.881Z,100805.34
2022-10-24T22:19:19.616Z,100811.34
2022-10-24T22:23:21.105Z,100807.41
2022-10-24T22:27:22.487Z,100807.84
2022-10-24T22:31:26.103Z,100815.94
2022-10-24T22:35:27.819Z,100821.31
2022-10-24T22:39:29.585Z,100823.59
2022-10-24T22:43:31.311Z,100839.28
2022-10-24T22:47:52.271Z,100834.81
2022-10-24T22:51:53.965Z,100837.00
2022-10-24T22:56:15.013Z,100834.50
2022-10-24T23:00:17.143Z,100838.13
2022-10-24T23:04:50.917Z,100835.75
2022-10-24T23:08:52.318Z,100843.16
2022-10-24T23:12:54.118Z,100833.22
2022-10-24T23:16:58.754Z,100829.63
2022-10-24T23:21:21.488Z,100828.59
2022-10-24T23:25:23.290Z,100835.44
2022-10-24T23:29:30.484Z,100836.03
2022-10-24T23:33:32.179Z,100830.91
2022-10-24T23:37:46.307Z,100834.38
2022-10-24T23:41:48.035Z,100823.91
2022-10-24T23:45:59.263Z,100837.78
2022-10-24T23:50:10.000Z,100839.00
2022-10-24T23:54:13.126Z,100831.53
2022-10-24T23:58:14.569Z,100826.47
